

Wyoming Mesonet
Water Resources Data System and State Climate Office
SEO WACNet, UW USACE UMRB, USDA-ARS, BLM
| Wind | Soil | |||||||||||||||||||
| Temp | Precip | Speed | Dir | Gust | Dir | Humidity | Pressure | Solar | Snow | Temperature (Deg F) | Moisture (%) | |||||||||
| Date Time (MST) | (F) | (in) | (mph) | (deg) | (mph) | (deg) | (%) | (Mbars) | (w/m^2) | (in) | 5cm | 10cm | 20cm | 50cm | 1m | 5cm | 10cm | 20cm | 50cm | 1m |
| 2026-08-30 00:00:00 | 61.43 | 0.00 | 3.57 | 181 | 10.81 | 158 | 71.2 | 889.0 | 0.0 | 0.8 | 77.54 | 80.42 | 80.24 | 76.64 | 74.12 | 0.0% | 5.8% | 16.3% | 20.9% | 30.7% |
| 2026-08-30 01:00:00 | 60.33 | 0.00 | 0.99 | 200 | 5.34 | 169 | 70.5 | 889.0 | 0.0 | 0.7 | 76.10 | 79.70 | 79.88 | 76.64 | 74.12 | 0.0% | 5.6% | 16.6% | 20.9% | 30.7% |
| 2026-08-30 02:00:00 | 59.86 | 0.00 | 0.26 | 357 | 7.33 | 159 | 77.0 | 889.0 | 0.0 | 0.6 | 74.84 | 78.80 | 79.52 | 76.82 | 74.12 | 0.0% | 5.5% | 16.3% | 20.9% | 30.5% |
| 2026-08-30 03:00:00 | 56.84 | 0.00 | 1.87 | 170 | 3.23 | 230 | 75.2 | 889.0 | 0.0 | 0.6 | 73.58 | 77.90 | 79.34 | 76.82 | 74.12 | 0.0% | 5.4% | 16.2% | 20.9% | 30.7% |
| 2026-08-30 04:00:00 | 54.27 | 0.00 | 4.90 | 173 | 7.21 | 165 | 84.0 | 890.0 | 0.0 | 0.6 | 72.68 | 77.18 | 78.80 | 76.82 | 74.12 | 0.0% | 5.3% | 16.1% | 20.9% | 30.6% |
| 2026-08-30 05:00:00 | 56.35 | 0.00 | 0.92 | 193 | 5.22 | 173 | 80.8 | 889.0 | 0.0 | 0.7 | 71.78 | 76.46 | 78.44 | 76.82 | 74.12 | 0.0% | 5.2% | 16.1% | 20.8% | 30.6% |
| 2026-08-30 06:00:00 | 53.87 | 0.00 | 5.32 | 173 | 6.71 | 171 | 83.4 | 890.0 | 32.3 | 0.6 | 70.88 | 75.92 | 78.08 | 76.82 | 74.12 | 0.0% | 5.2% | 16.2% | 20.8% | 30.6% |
| 2026-08-30 07:00:00 | 58.55 | 0.00 | 0.05 | 136 | 6.21 | 168 | 75.6 | 890.0 | 262.1 | 0.9 | 70.70 | 75.20 | 77.72 | 76.82 | 74.12 | 0.0% | 5.2% | 16.0% | 20.9% | 30.6% |
| 2026-08-30 08:00:00 | 68.34 | 0.00 | 7.01 | 257 | 10.31 | 266 | 55.0 | 890.0 | 447.5 | 0.9 | 72.68 | 74.84 | 77.36 | 76.82 | 74.12 | 0.0% | 5.1% | 16.3% | 20.9% | 30.6% |
| 2026-08-30 09:00:00 | 73.20 | 0.00 | 1.23 | 126 | 8.08 | 236 | 47.1 | 890.0 | 598.7 | 1.3 | 76.82 | 75.02 | 77.00 | 76.82 | 74.12 | 0.0% | 5.1% | 16.0% | 20.8% | 30.6% |
| 2026-08-30 10:00:00 | 78.26 | 0.00 | 0.80 | 109 | 7.45 | 42 | 40.5 | 890.0 | 574.2 | 1.5 | 81.32 | 75.92 | 76.64 | 76.82 | 74.12 | 0.0% | 5.2% | 16.0% | 20.8% | 30.6% |
| 2026-08-30 11:00:00 | 81.28 | 0.00 | 3.15 | 242 | 8.08 | 93 | 37.1 | 890.0 | 859.0 | 1.5 | 85.46 | 77.36 | 76.82 | 76.82 | 74.12 | 0.0% | 5.4% | 16.2% | 20.9% | 30.7% |
| 2026-08-30 12:00:00 | 82.27 | 0.00 | 7.31 | 320 | 14.91 | 280 | 32.8 | 889.0 | 504.9 | 1.6 | 88.52 | 79.16 | 76.82 | 76.64 | 74.12 | 0.0% | 5.6% | 16.0% | 20.9% | 30.8% |
| 2026-08-30 13:00:00 | 59.63 | 0.00 | 30.33 | 334 | 58.14 | 304 | 79.5 | 892.0 | 268.6 | 0.6 | 89.24 | 80.96 | 77.36 | 76.64 | 74.12 | 0.0% | 5.8% | 16.2% | 20.9% | 30.8% |
| 2026-08-30 14:00:00 | 65.41 | 0.00 | 11.69 | 24 | 40.49 | 341 | 54.4 | 893.0 | 354.6 | 0.8 | 86.00 | 81.86 | 77.90 | 76.64 | 74.12 | 0.0% | 6.0% | 16.0% | 21.0% | 30.6% |
| 2026-08-30 15:00:00 | 69.93 | 0.00 | 10.23 | 4 | 24.72 | 31 | 43.8 | 891.0 | 631.5 | 1.0 | 84.92 | 81.86 | 78.26 | 76.64 | 74.12 | 0.0% | 5.9% | 16.2% | 20.9% | 30.6% |
| 2026-08-30 16:00:00 | 73.85 | 0.00 | 6.93 | 25 | 14.66 | 12 | 39.0 | 891.0 | 455.0 | 1.1 | 85.10 | 81.86 | 78.80 | 76.46 | 74.12 | 0.0% | 5.8% | 16.3% | 20.8% | 30.5% |
| 2026-08-30 17:00:00 | 74.10 | 0.00 | 8.86 | 33 | 16.77 | 23 | 38.6 | 891.0 | 276.7 | 0.9 | 85.10 | 82.04 | 78.98 | 76.46 | 74.12 | 0.0% | 6.1% | 16.2% | 20.9% | 30.6% |
| 2026-08-30 18:00:00 | 70.34 | 0.00 | 10.44 | 31 | 19.37 | 17 | 40.1 | 892.0 | 107.4 | 0.9 | 83.66 | 82.04 | 79.34 | 76.46 | 73.94 | 0.0% | 5.9% | 16.5% | 20.9% | 30.6% |
| 2026-08-30 19:00:00 | 65.61 | 0.00 | 12.13 | 10 | 14.41 | 43 | 42.6 | 892.0 | 0.0 | 0.8 | 81.50 | 81.68 | 79.52 | 76.28 | 74.12 | 0.0% | 5.9% | 16.8% | 20.9% | 30.7% |
| 2026-08-30 20:00:00 | 65.82 | 0.00 | 2.85 | 145 | 11.68 | 14 | 43.7 | 893.0 | 0.0 | 0.7 | 79.16 | 80.96 | 79.52 | 76.46 | 73.94 | 0.0% | 5.9% | 16.2% | 20.9% | 30.7% |
| 2026-08-30 21:00:00 | 60.04 | 0.00 | 8.61 | 156 | 11.80 | 165 | 56.4 | 893.0 | 0.0 | 0.6 | 77.00 | 80.06 | 79.52 | 76.46 | 73.94 | 0.0% | 5.7% | 16.4% | 20.9% | 30.5% |
| 2026-08-30 22:00:00 | 57.33 | 0.00 | 7.32 | 163 | 10.31 | 138 | 71.2 | 893.0 | 0.0 | 0.6 | 75.20 | 79.16 | 79.34 | 76.28 | 73.94 | 0.0% | 5.5% | 16.5% | 20.9% | 30.6% |
| 2026-08-30 23:00:00 | 52.21 | 0.00 | 2.69 | 179 | 8.32 | 163 | 80.9 | 893.0 | 0.0 | 0.4 | 73.58 | 78.26 | 78.98 | 76.46 | 73.94 | 0.0% | 5.3% | 16.4% | 20.9% | 30.6% |